createdAt,value
2023-02-02T00:01:09.268Z,11.18
2023-02-02T00:03:57.174Z,7.13
2023-02-02T00:06:46.108Z,9.57
2023-02-02T00:09:33.531Z,10.00
2023-02-02T00:12:20.462Z,10.07
2023-02-02T00:15:07.849Z,14.00
2023-02-02T00:17:54.738Z,9.88
2023-02-02T00:20:41.861Z,13.67
2023-02-02T00:23:28.874Z,11.50
2023-02-02T00:26:16.392Z,12.88
2023-02-02T00:29:03.991Z,10.50
2023-02-02T00:31:51.583Z,11.88
2023-02-02T00:34:38.381Z,10.23
2023-02-02T00:37:25.210Z,8.63
2023-02-02T00:40:12.346Z,12.43
2023-02-02T00:42:59.271Z,12.88
2023-02-02T00:45:46.234Z,10.68
2023-02-02T00:48:33.038Z,13.03
2023-02-02T00:51:19.894Z,11.35
2023-02-02T00:54:06.922Z,8.33
2023-02-02T00:56:53.846Z,10.45
2023-02-02T00:59:41.432Z,10.48
2023-02-02T01:02:28.399Z,8.40
2023-02-02T01:05:15.376Z,9.38
2023-02-02T01:08:02.568Z,7.67
2023-02-02T01:10:49.459Z,8.52
2023-02-02T01:13:36.359Z,7.53
2023-02-02T01:16:23.486Z,7.57
2023-02-02T01:19:16.241Z,8.80
2023-02-02T01:22:03.639Z,8.00
2023-02-02T01:24:50.530Z,6.65
2023-02-02T01:27:37.346Z,7.40
2023-02-02T01:30:24.185Z,5.47
2023-02-02T01:33:11.076Z,5.57
2023-02-02T01:35:57.933Z,4.80
2023-02-02T01:38:45.141Z,6.27
2023-02-02T01:41:32.146Z,6.03
2023-02-02T01:44:56.036Z,7.88
2023-02-02T01:47:58.958Z,6.10
2023-02-02T01:50:47.479Z,7.47
2023-02-02T01:53:34.701Z,6.70
2023-02-02T01:56:34.984Z,5.88
2023-02-02T01:59:22.661Z,8.60
2023-02-02T02:02:09.763Z,5.30
2023-02-02T02:04:57.404Z,4.97
2023-02-02T02:07:46.733Z,6.07
2023-02-02T02:10:34.968Z,6.97
2023-02-02T02:13:44.607Z,4.43
2023-02-02T02:16:59.284Z,6.25
2023-02-02T02:20:39.063Z,5.07
2023-02-02T02:24:25.837Z,5.13
2023-02-02T02:27:37.234Z,7.55
2023-02-02T02:30:59.204Z,4.95
2023-02-02T02:34:03.438Z,4.75
2023-02-02T02:37:10.551Z,8.32
2023-02-02T02:40:03.808Z,3.42
2023-02-02T02:42:55.968Z,4.30
2023-02-02T02:45:44.703Z,4.88
2023-02-02T02:48:31.585Z,5.10
2023-02-02T02:51:40.422Z,6.37
2023-02-02T02:54:35.632Z,6.45
2023-02-02T02:57:57.413Z,6.75
2023-02-02T03:01:02.978Z,4.50
2023-02-02T03:04:20.615Z,7.15
2023-02-02T03:07:26.091Z,5.05
2023-02-02T03:10:17.358Z,6.75
2023-02-02T03:13:12.042Z,5.93
2023-02-02T03:15:59.052Z,5.97
2023-02-02T03:18:46.033Z,5.90
2023-02-02T03:21:33.697Z,4.72
2023-02-02T03:24:20.664Z,5.38
2023-02-02T03:27:07.596Z,4.95
2023-02-02T03:29:55.164Z,4.63
2023-02-02T03:32:42.578Z,4.03
2023-02-02T03:35:29.604Z,4.90
2023-02-02T03:38:16.440Z,3.33
2023-02-02T03:41:03.872Z,5.93
2023-02-02T03:43:50.885Z,2.35
2023-02-02T03:46:37.713Z,1.83
2023-02-02T03:49:24.573Z,4.03
2023-02-02T03:52:11.536Z,2.47
2023-02-02T03:54:58.365Z,3.60
2023-02-02T03:57:45.247Z,3.43
2023-02-02T04:00:32.098Z,5.77
2023-02-02T04:03:18.928Z,3.00
2023-02-02T04:06:06.013Z,4.60
2023-02-02T04:08:53.248Z,5.07
2023-02-02T04:11:40.141Z,6.82
2023-02-02T04:14:27.061Z,6.10
2023-02-02T04:17:13.844Z,4.07
2023-02-02T04:20:01.053Z,6.63
2023-02-02T04:22:47.845Z,5.95
2023-02-02T04:25:34.649Z,4.93
2023-02-02T04:28:22.649Z,7.13
2023-02-02T04:31:09.642Z,5.38
2023-02-02T04:33:57.354Z,9.27
2023-02-02T04:36:44.625Z,6.80
2023-02-02T04:39:31.458Z,5.35
2023-02-02T04:42:18.396Z,5.40
2023-02-02T04:45:05.839Z,4.23
2023-02-02T04:47:52.811Z,4.15
2023-02-02T04:50:39.675Z,5.57
2023-02-02T04:53:27.163Z,7.57
2023-02-02T04:56:18.998Z,7.18
2023-02-02T04:59:05.857Z,7.32
2023-02-02T05:01:52.857Z,6.93
2023-02-02T05:04:39.772Z,7.53
2023-02-02T05:07:26.623Z,4.97
2023-02-02T05:10:13.480Z,5.88
2023-02-02T05:13:00.342Z,5.57
2023-02-02T05:15:48.196Z,7.27
2023-02-02T05:21:22.462Z,6.95
2023-02-02T05:24:09.573Z,3.28
2023-02-02T05:27:00.628Z,13.95
2023-02-02T05:29:48.404Z,8.27
2023-02-02T05:35:22.163Z,4.85
2023-02-02T05:38:09.077Z,6.47
2023-02-02T05:40:56.193Z,6.80
2023-02-02T05:43:44.224Z,4.60
2023-02-02T05:46:31.278Z,4.40
2023-02-02T05:49:18.176Z,4.60
2023-02-02T05:52:05.270Z,3.27
2023-02-02T05:54:52.153Z,4.88
2023-02-02T05:57:39.018Z,4.40
2023-02-02T06:00:26.037Z,4.63
2023-02-02T06:03:13.312Z,4.00
2023-02-02T06:06:00.451Z,4.93
2023-02-02T06:08:47.435Z,2.27
2023-02-02T06:11:34.988Z,6.77
2023-02-02T06:14:21.784Z,4.72
2023-02-02T06:17:08.663Z,5.65
2023-02-02T06:19:55.497Z,5.20
2023-02-02T06:22:43.988Z,4.68
2023-02-02T06:25:30.846Z,6.95
2023-02-02T06:28:17.734Z,5.83
2023-02-02T06:31:06.112Z,3.57
2023-02-02T06:33:55.628Z,6.50
2023-02-02T06:36:43.075Z,5.00
2023-02-02T06:39:30.180Z,8.80
2023-02-02T06:42:21.790Z,7.60
2023-02-02T06:45:09.661Z,4.32
2023-02-02T06:48:05.330Z,7.28
2023-02-02T06:50:52.251Z,4.22
2023-02-02T06:53:39.061Z,6.17
2023-02-02T06:56:25.968Z,6.82
2023-02-02T06:59:12.812Z,6.30
2023-02-02T07:01:59.807Z,5.07
2023-02-02T07:04:46.846Z,4.30
2023-02-02T07:07:35.093Z,5.73
2023-02-02T07:11:16.142Z,5.72
2023-02-02T07:13:28.711Z,6.75
2023-02-02T07:16:17.383Z,6.43
2023-02-02T07:19:04.402Z,3.83
2023-02-02T07:21:51.250Z,5.70
2023-02-02T07:24:41.141Z,10.37
2023-02-02T07:27:27.937Z,5.70
2023-02-02T07:30:16.134Z,5.30
2023-02-02T07:33:03.015Z,12.00
2023-02-02T07:35:49.973Z,5.17
2023-02-02T07:38:37.061Z,8.47
2023-02-02T07:41:24.704Z,3.08
2023-02-02T07:44:17.249Z,7.35
2023-02-02T07:47:04.688Z,5.05
2023-02-02T07:49:51.465Z,10.95
2023-02-02T07:52:38.416Z,9.73
2023-02-02T07:55:25.323Z,6.90
2023-02-02T07:58:12.161Z,3.47
2023-02-02T08:01:07.094Z,9.57
2023-02-02T08:03:55.853Z,5.63
2023-02-02T08:06:42.863Z,6.55
2023-02-02T08:09:29.770Z,6.55
2023-02-02T08:12:16.585Z,4.23
2023-02-02T08:15:03.662Z,4.90
2023-02-02T08:17:50.477Z,3.50
2023-02-02T08:20:37.360Z,5.68
2023-02-02T08:23:24.175Z,3.53
2023-02-02T08:26:16.619Z,6.45
2023-02-02T08:29:06.774Z,3.47
2023-02-02T08:31:54.598Z,6.80
2023-02-02T08:37:28.303Z,3.78
2023-02-02T08:40:15.474Z,3.97
2023-02-02T08:43:03.817Z,3.78
2023-02-02T08:46:01.492Z,2.60
2023-02-02T08:48:51.844Z,2.30
2023-02-02T08:51:38.723Z,3.37
2023-02-02T08:54:25.685Z,4.22
2023-02-02T08:57:12.514Z,1.30
2023-02-02T08:59:59.328Z,4.20
2023-02-02T09:02:49.837Z,3.13
2023-02-02T09:05:38.576Z,5.22
2023-02-02T09:08:25.379Z,4.28
2023-02-02T09:11:18.094Z,2.47
2023-02-02T09:14:06.757Z,3.38
2023-02-02T09:16:53.793Z,3.47
2023-02-02T09:19:40.699Z,3.60
2023-02-02T09:22:28.916Z,3.83
2023-02-02T09:25:16.116Z,4.18
2023-02-02T09:28:03.031Z,3.53
2023-02-02T09:30:50.019Z,3.80
2023-02-02T09:33:37.642Z,6.07
2023-02-02T09:36:26.939Z,3.08
2023-02-02T09:39:16.126Z,4.32
2023-02-02T09:42:13.042Z,4.25
2023-02-02T09:45:23.314Z,4.55
2023-02-02T09:48:30.835Z,4.90
2023-02-02T09:51:21.389Z,4.20
2023-02-02T09:54:21.096Z,4.85
2023-02-02T09:57:23.875Z,4.35
2023-02-02T10:00:29.618Z,3.22
2023-02-02T10:03:16.466Z,3.35
2023-02-02T10:06:23.653Z,5.18
2023-02-02T10:09:31.634Z,3.33
2023-02-02T10:12:43.716Z,3.73
2023-02-02T10:15:41.619Z,4.50
2023-02-02T10:18:43.563Z,3.15
2023-02-02T10:22:04.929Z,3.70
2023-02-02T10:24:51.901Z,2.40
2023-02-02T10:27:40.498Z,2.13
2023-02-02T10:30:45.522Z,3.10
2023-02-02T10:33:40.045Z,3.03
2023-02-02T10:36:38.044Z,5.13
2023-02-02T10:39:39.494Z,4.18
2023-02-02T10:43:38.286Z,2.63
2023-02-02T10:46:37.202Z,2.05
2023-02-02T10:49:35.487Z,2.08
2023-02-02T10:52:29.740Z,2.58
2023-02-02T10:55:42.623Z,1.55
2023-02-02T10:58:51.208Z,2.35
2023-02-02T11:01:38.099Z,1.33
2023-02-02T11:04:43.998Z,1.03
2023-02-02T11:07:30.867Z,2.05
2023-02-02T11:10:17.820Z,2.33
2023-02-02T11:13:07.844Z,1.40
2023-02-02T11:16:16.684Z,1.90
2023-02-02T11:19:24.155Z,1.52
2023-02-02T11:22:30.752Z,2.50
2023-02-02T11:25:32.759Z,1.13
2023-02-02T11:28:22.750Z,1.60
2023-02-02T11:31:09.874Z,2.13
2023-02-02T11:34:21.030Z,1.60
2023-02-02T11:37:38.183Z,3.15
2023-02-02T11:40:34.137Z,2.45
2023-02-02T11:43:48.674Z,2.28
2023-02-02T11:46:38.921Z,3.75
2023-02-02T11:49:26.252Z,4.57
2023-02-02T11:52:21.058Z,2.42
2023-02-02T11:55:15.558Z,3.58
2023-02-02T11:58:27.736Z,3.63
2023-02-02T12:01:41.832Z,2.67
2023-02-02T12:04:29.559Z,1.75
2023-02-02T12:07:19.477Z,1.20
2023-02-02T12:10:25.251Z,4.43
2023-02-02T12:13:31.055Z,2.53
2023-02-02T12:16:46.103Z,2.65
2023-02-02T12:19:35.696Z,1.85
2023-02-02T12:22:31.527Z,2.15
2023-02-02T12:25:37.435Z,2.47
2023-02-02T12:28:37.301Z,2.13
2023-02-02T12:31:34.125Z,2.88
2023-02-02T12:34:33.216Z,2.83
2023-02-02T12:37:31.208Z,2.00
2023-02-02T12:40:42.116Z,3.47
2023-02-02T12:43:46.377Z,2.78
2023-02-02T12:46:57.066Z,2.63
2023-02-02T12:49:44.075Z,2.65
2023-02-02T12:52:45.193Z,4.07
2023-02-02T12:55:42.889Z,2.60
2023-02-02T12:59:03.397Z,3.65
2023-02-02T13:02:12.582Z,3.80
2023-02-02T13:05:07.255Z,2.85
2023-02-02T13:08:23.872Z,2.85
2023-02-02T13:11:30.967Z,3.72
2023-02-02T13:14:23.235Z,3.08
2023-02-02T13:17:29.119Z,6.82
2023-02-02T13:20:23.374Z,2.67
2023-02-02T13:23:13.643Z,3.88
2023-02-02T13:26:10.070Z,3.55
2023-02-02T13:29:07.615Z,3.92
2023-02-02T13:32:39.532Z,2.40
2023-02-02T13:35:56.616Z,2.55
2023-02-02T13:38:45.707Z,7.60
2023-02-02T13:41:32.738Z,4.40
2023-02-02T13:44:32.259Z,8.70
2023-02-02T13:47:40.580Z,5.20
2023-02-02T13:50:30.524Z,3.70
2023-02-02T13:53:31.881Z,5.20
2023-02-02T13:56:18.670Z,5.07
2023-02-02T13:59:49.119Z,2.10
2023-02-02T14:02:51.401Z,7.03
2023-02-02T14:05:41.417Z,9.95
2023-02-02T14:08:30.142Z,7.90
2023-02-02T14:11:34.157Z,3.95
2023-02-02T14:14:32.278Z,4.85
2023-02-02T14:17:22.185Z,9.85
2023-02-02T14:20:41.157Z,5.22
2023-02-02T14:23:51.322Z,19.52
2023-02-02T14:26:46.639Z,20.55
2023-02-02T14:29:36.744Z,17.77
2023-02-02T14:32:29.373Z,19.58
2023-02-02T14:35:18.510Z,10.20
2023-02-02T14:38:13.663Z,5.65
2023-02-02T14:42:00.684Z,13.80
2023-02-02T14:45:23.908Z,7.60
2023-02-02T14:48:18.888Z,17.35
2023-02-02T14:51:14.427Z,21.65
2023-02-02T14:54:05.314Z,12.98
2023-02-02T14:57:00.693Z,12.07
2023-02-02T14:59:48.294Z,16.40
2023-02-02T15:02:37.716Z,7.18
2023-02-02T15:05:39.022Z,15.07
2023-02-02T15:08:29.712Z,10.38
2023-02-02T15:11:28.591Z,6.32
2023-02-02T15:14:16.174Z,3.45
2023-02-02T15:17:30.652Z,3.50
2023-02-02T15:20:44.728Z,3.25
2023-02-02T15:23:36.138Z,2.20
2023-02-02T15:26:33.066Z,4.03
2023-02-02T15:29:37.566Z,6.25
2023-02-02T15:32:28.105Z,10.68
2023-02-02T15:35:22.107Z,3.70
2023-02-02T15:38:15.336Z,3.63
2023-02-02T15:41:18.460Z,2.50
2023-02-02T15:44:28.464Z,2.60
2023-02-02T15:47:19.074Z,1.88
2023-02-02T15:50:19.874Z,3.92
2023-02-02T15:53:06.966Z,3.20
2023-02-02T15:55:54.941Z,5.13
2023-02-02T15:58:49.093Z,4.65
2023-02-02T16:01:46.739Z,5.43
2023-02-02T16:04:42.771Z,8.90
2023-02-02T16:07:33.961Z,8.10
2023-02-02T16:10:22.199Z,6.88
2023-02-02T16:13:28.002Z,4.47
2023-02-02T16:16:23.957Z,6.30
2023-02-02T16:19:20.907Z,5.95
2023-02-02T16:22:13.440Z,4.90
2023-02-02T16:25:06.025Z,6.15
2023-02-02T16:27:53.176Z,4.60
2023-02-02T16:30:40.486Z,2.40
2023-02-02T16:33:42.624Z,4.95
2023-02-02T16:36:29.861Z,5.63
2023-02-02T16:39:23.776Z,7.47
2023-02-02T16:42:31.796Z,7.05
2023-02-02T16:45:40.357Z,5.50
2023-02-02T16:48:58.000Z,9.35
2023-02-02T16:51:47.579Z,6.97
2023-02-02T16:54:34.507Z,7.57
2023-02-02T16:57:34.167Z,5.07
2023-02-02T17:00:27.635Z,4.82
2023-02-02T17:03:18.188Z,4.80
2023-02-02T17:06:05.977Z,5.63
2023-02-02T17:11:39.591Z,4.47
2023-02-02T17:14:31.070Z,5.10
2023-02-02T17:17:17.936Z,6.25
2023-02-02T17:20:05.560Z,4.73
2023-02-02T17:23:02.558Z,4.40
2023-02-02T17:25:49.442Z,5.20
2023-02-02T17:28:40.058Z,11.00
2023-02-02T17:31:27.033Z,12.73
2023-02-02T17:34:15.733Z,13.38
2023-02-02T17:37:02.657Z,5.55
2023-02-02T17:39:50.768Z,5.43
2023-02-02T17:42:38.807Z,6.80
2023-02-02T17:45:34.269Z,6.45
2023-02-02T17:48:21.326Z,7.38
2023-02-02T17:51:15.975Z,9.30
2023-02-02T17:54:03.048Z,12.60
2023-02-02T17:56:49.855Z,10.48
2023-02-02T17:59:36.704Z,5.40
2023-02-02T18:02:23.545Z,8.98
2023-02-02T18:05:11.796Z,3.73
2023-02-02T18:07:58.703Z,4.85
2023-02-02T18:10:45.620Z,4.20
2023-02-02T18:13:32.651Z,3.97
2023-02-02T18:16:20.078Z,5.35
2023-02-02T18:19:07.000Z,5.30
2023-02-02T18:21:53.939Z,6.57
2023-02-02T18:24:41.206Z,5.53
2023-02-02T18:27:29.824Z,5.10
2023-02-02T18:30:16.938Z,4.47
2023-02-02T18:33:03.894Z,2.95
2023-02-02T18:35:50.883Z,3.00
2023-02-02T18:38:39.204Z,4.63
2023-02-02T18:41:26.019Z,3.28
2023-02-02T18:44:12.851Z,5.28
2023-02-02T18:46:59.668Z,4.80
2023-02-02T18:49:46.762Z,5.15
2023-02-02T18:52:34.573Z,5.07
2023-02-02T18:58:10.631Z,4.78
2023-02-02T19:00:57.615Z,3.10
2023-02-02T19:03:49.274Z,2.70
2023-02-02T19:06:55.160Z,4.13
2023-02-02T19:09:41.983Z,7.30
2023-02-02T19:12:29.405Z,6.60
2023-02-02T19:15:16.317Z,6.22
2023-02-02T19:18:07.942Z,4.03
2023-02-02T19:20:54.807Z,8.57
2023-02-02T19:23:45.545Z,5.10
2023-02-02T19:26:41.832Z,4.90
2023-02-02T19:29:35.825Z,3.15
2023-02-02T19:32:27.192Z,4.55
2023-02-02T19:35:23.488Z,4.80
2023-02-02T19:38:13.724Z,3.70
2023-02-02T19:41:02.545Z,3.00
2023-02-02T19:43:54.644Z,2.15
2023-02-02T19:46:44.045Z,6.75
2023-02-02T19:49:36.061Z,11.55
2023-02-02T19:52:25.629Z,16.83
2023-02-02T19:55:21.010Z,32.63
2023-02-02T19:58:26.334Z,18.35
2023-02-02T20:01:20.401Z,38.78
2023-02-02T20:04:14.680Z,18.15
2023-02-02T20:07:05.459Z,19.25
2023-02-02T20:09:52.431Z,26.52
2023-02-02T20:12:39.317Z,17.77
2023-02-02T20:15:35.729Z,7.72
2023-02-02T20:18:44.682Z,3.00
2023-02-02T20:24:37.296Z,2.58
2023-02-02T20:27:26.828Z,4.15
2023-02-02T20:30:31.867Z,5.07
2023-02-02T20:33:24.409Z,5.88
2023-02-02T20:36:37.648Z,4.53
2023-02-02T20:39:29.904Z,4.78
2023-02-02T20:42:16.730Z,4.68
2023-02-02T20:45:03.728Z,2.80
2023-02-02T20:47:50.798Z,6.30
2023-02-02T20:50:37.949Z,3.40
2023-02-02T20:53:24.903Z,3.55
2023-02-02T20:56:11.807Z,2.60
2023-02-02T20:58:58.688Z,4.13
2023-02-02T21:01:45.981Z,2.55
2023-02-02T21:04:33.128Z,1.23
2023-02-02T21:07:22.540Z,2.17
2023-02-02T21:10:09.767Z,1.98
2023-02-02T21:12:56.657Z,1.83
2023-02-02T21:15:43.474Z,3.03
2023-02-02T21:18:30.440Z,2.17
2023-02-02T21:21:18.983Z,4.28
2023-02-02T21:24:12.626Z,2.03
2023-02-02T21:26:59.570Z,2.70
2023-02-02T21:29:46.591Z,2.73
2023-02-02T21:32:34.126Z,2.50
2023-02-02T21:35:21.403Z,3.17
2023-02-02T21:38:13.979Z,3.47
2023-02-02T21:41:01.828Z,2.25
2023-02-02T21:46:38.886Z,2.63
2023-02-02T21:49:28.553Z,1.75
2023-02-02T21:52:18.012Z,3.28
2023-02-02T21:55:38.070Z,3.03
2023-02-02T21:58:40.565Z,1.75
2023-02-02T22:04:59.312Z,3.00
2023-02-02T22:07:49.432Z,3.10
2023-02-02T22:10:42.399Z,0.88
2023-02-02T22:13:34.370Z,2.55
2023-02-02T22:16:21.438Z,3.30
2023-02-02T22:19:37.857Z,2.47
2023-02-02T22:22:29.475Z,2.75
2023-02-02T22:25:16.255Z,1.77
2023-02-02T22:28:15.732Z,2.45
2023-02-02T22:31:02.906Z,1.30
2023-02-02T22:33:50.195Z,2.08
2023-02-02T22:36:37.075Z,2.40
2023-02-02T22:39:23.878Z,1.63
2023-02-02T22:42:11.010Z,2.08
2023-02-02T22:44:57.863Z,2.47
2023-02-02T22:47:47.521Z,2.00
2023-02-02T22:50:35.327Z,1.80
2023-02-02T22:56:09.089Z,0.90
2023-02-02T22:58:55.924Z,2.85
2023-02-02T23:01:42.756Z,3.33
2023-02-02T23:04:29.567Z,3.22
2023-02-02T23:07:16.462Z,1.87
2023-02-02T23:10:04.080Z,2.13
2023-02-02T23:12:53.618Z,2.25
2023-02-02T23:15:40.445Z,1.33
2023-02-02T23:18:27.344Z,1.00
2023-02-02T23:21:14.195Z,0.60
2023-02-02T23:24:01.193Z,1.40
2023-02-02T23:26:48.037Z,1.10
2023-02-02T23:29:35.030Z,1.52
2023-02-02T23:32:21.870Z,1.52
2023-02-02T23:35:10.762Z,1.27
2023-02-02T23:37:57.930Z,2.25
2023-02-02T23:40:44.813Z,1.10
2023-02-02T23:43:31.811Z,0.60
2023-02-02T23:46:19.088Z,1.13
2023-02-02T23:49:06.317Z,0.90
2023-02-02T23:51:53.301Z,1.38
2023-02-02T23:54:40.329Z,1.03
2023-02-02T23:57:27.517Z,2.15
